sensor_id;sensor_type;location;lat;lon;timestamp;pressure;altitude;pressure_sealevel;temperature;humidity
54236;BME280;40151;43.606;1.472;2023-02-04T00:00:14;101135.56;;;16.43;52.35
54236;BME280;40151;43.606;1.472;2023-02-04T00:02:40;101141.66;;;16.45;51.86
54236;BME280;40151;43.606;1.472;2023-02-04T00:05:06;101136.41;;;16.45;52.26
54236;BME280;40151;43.606;1.472;2023-02-04T00:07:32;101137.38;;;16.41;52.23
54236;BME280;40151;43.606;1.472;2023-02-04T00:09:57;101135.59;;;16.40;52.24
54236;BME280;40151;43.606;1.472;2023-02-04T00:12:23;101138.22;;;16.41;52.38
54236;BME280;40151;43.606;1.472;2023-02-04T00:14:48;101136.44;;;16.43;52.36
54236;BME280;40151;43.606;1.472;2023-02-04T00:17:14;101125.97;;;16.38;52.13
54236;BME280;40151;43.606;1.472;2023-02-04T00:19:40;101134.69;;;16.42;52.32
54236;BME280;40151;43.606;1.472;2023-02-04T00:22:05;101128.56;;;16.42;52.11
54236;BME280;40151;43.606;1.472;2023-02-04T00:24:34;101137.38;;;16.41;52.31
54236;BME280;40151;43.606;1.472;2023-02-04T00:27:01;101136.47;;;16.42;52.10
54236;BME280;40151;43.606;1.472;2023-02-04T00:29:27;101138.19;;;16.44;52.10
54236;BME280;40151;43.606;1.472;2023-02-04T00:31:52;101139.94;;;16.44;52.03
54236;BME280;40151;43.606;1.472;2023-02-04T00:34:17;101137.31;;;16.44;52.21
54236;BME280;40151;43.606;1.472;2023-02-04T00:36:43;101139.03;;;16.45;52.35
54236;BME280;40151;43.606;1.472;2023-02-04T00:39:09;101144.31;;;16.45;52.28
54236;BME280;40151;43.606;1.472;2023-02-04T00:41:34;101142.56;;;16.44;52.16
54236;BME280;40151;43.606;1.472;2023-02-04T00:44:00;101139.03;;;16.45;52.28
54236;BME280;40151;43.606;1.472;2023-02-04T00:46:25;101137.31;;;16.44;52.11
54236;BME280;40151;43.606;1.472;2023-02-04T00:48:51;101140.81;;;16.46;52.09
54236;BME280;40151;43.606;1.472;2023-02-04T00:51:16;101133.84;;;16.42;52.29
54236;BME280;40151;43.606;1.472;2023-02-04T00:53:42;101132.94;;;16.41;52.31
54236;BME280;40151;43.606;1.472;2023-02-04T00:56:07;101133.84;;;16.42;52.10
54236;BME280;40151;43.606;1.472;2023-02-04T00:58:32;101139.09;;;16.43;51.94
54236;BME280;40151;43.606;1.472;2023-02-04T01:00:58;101132.13;;;16.37;52.48
54236;BME280;40151;43.606;1.472;2023-02-04T01:03:23;101139.94;;;16.44;52.32
54236;BME280;40151;43.606;1.472;2023-02-04T01:05:49;101136.47;;;16.40;52.23
54236;BME280;40151;43.606;1.472;2023-02-04T01:08:14;101132.03;;;16.44;52.29
54236;BME280;40151;43.606;1.472;2023-02-04T01:10:40;101137.31;;;16.44;52.32
54236;BME280;40151;43.606;1.472;2023-02-04T01:13:06;101144.31;;;16.45;52.35
54236;BME280;40151;43.606;1.472;2023-02-04T01:15:33;101135.59;;;16.41;52.43
54236;BME280;40151;43.606;1.472;2023-02-04T01:17:59;101139.94;;;16.44;52.32
54236;BME280;40151;43.606;1.472;2023-02-04T01:20:24;101138.19;;;16.44;52.19
54236;BME280;40151;43.606;1.472;2023-02-04T01:22:50;101148.72;;;16.44;52.44
54236;BME280;40151;43.606;1.472;2023-02-04T01:25:15;101142.63;;;16.41;52.26
54236;BME280;40151;43.606;1.472;2023-02-04T01:27:42;101126.81;;;16.41;52.19
54236;BME280;40151;43.606;1.472;2023-02-04T01:30:08;101128.56;;;16.42;52.32
54236;BME280;40151;43.606;1.472;2023-02-04T01:32:34;101126.75;;;16.44;52.13
54236;BME280;40151;43.606;1.472;2023-02-04T01:34:59;101124.13;;;16.44;52.25
54236;BME280;40151;43.606;1.472;2023-02-04T01:37:24;101113.59;;;16.42;52.31
54236;BME280;40151;43.606;1.472;2023-02-04T01:39:50;101117.13;;;16.41;52.23
54236;BME280;40151;43.606;1.472;2023-02-04T01:42:15;101114.50;;;16.41;51.97
54236;BME280;40151;43.606;1.472;2023-02-04T01:44:41;101119.72;;;16.46;52.37
54236;BME280;40151;43.606;1.472;2023-02-04T01:47:07;101115.38;;;16.43;52.10
54236;BME280;40151;43.606;1.472;2023-02-04T01:49:33;101119.75;;;16.43;52.15
54236;BME280;40151;43.606;1.472;2023-02-04T01:51:58;101120.63;;;16.43;52.07
54236;BME280;40151;43.606;1.472;2023-02-04T01:54:25;101117.09;;;16.44;52.42
54236;BME280;40151;43.606;1.472;2023-02-04T01:56:50;101115.41;;;16.40;52.10
54236;BME280;40151;43.606;1.472;2023-02-04T01:59:17;101110.97;;;16.42;52.33
54236;BME280;40151;43.606;1.472;2023-02-04T02:01:46;101111.81;;;16.46;52.04
54236;BME280;40151;43.606;1.472;2023-02-04T02:04:17;101112.78;;;16.38;52.22
54236;BME280;40151;43.606;1.472;2023-02-04T02:06:48;101103.94;;;16.43;52.05
54236;BME280;40151;43.606;1.472;2023-02-04T02:09:15;101107.41;;;16.45;52.20
54236;BME280;40151;43.606;1.472;2023-02-04T02:11:40;101103.06;;;16.42;52.07
54236;BME280;40151;43.606;1.472;2023-02-04T02:14:06;101103.94;;;16.43;51.92
54236;BME280;40151;43.606;1.472;2023-02-04T02:16:32;101095.22;;;16.41;52.21
54236;BME280;40151;43.606;1.472;2023-02-04T02:18:58;101103.03;;;16.44;51.88
54236;BME280;40151;43.606;1.472;2023-02-04T02:21:58;101096.06;;;16.41;52.10
54236;BME280;40151;43.606;1.472;2023-02-04T02:24:33;101103.94;;;16.43;52.04
54236;BME280;40151;43.606;1.472;2023-02-04T02:27:02;101101.34;;;16.41;52.16
54236;BME280;40151;43.606;1.472;2023-02-04T02:29:29;101103.06;;;16.42;51.88
54236;BME280;40151;43.606;1.472;2023-02-04T02:31:56;101105.78;;;16.37;52.34
54236;BME280;40151;43.606;1.472;2023-02-04T02:34:23;101111.84;;;16.44;51.91
54236;BME280;40151;43.606;1.472;2023-02-04T02:36:50;101102.22;;;16.42;51.97
54236;BME280;40151;43.606;1.472;2023-02-04T02:39:15;101101.34;;;16.41;52.16
54236;BME280;40151;43.606;1.472;2023-02-04T02:41:42;101103.94;;;16.43;51.82
54236;BME280;40151;43.606;1.472;2023-02-04T02:44:08;101096.06;;;16.41;52.02
54236;BME280;40151;43.606;1.472;2023-02-04T02:46:35;101102.16;;;16.45;51.71
54236;BME280;40151;43.606;1.472;2023-02-04T02:49:01;101105.69;;;16.44;52.29
54236;BME280;40151;43.606;1.472;2023-02-04T02:51:27;101097.84;;;16.41;51.90
54236;BME280;40151;43.606;1.472;2023-02-04T02:53:52;101088.16;;;16.40;52.09
54236;BME280;40151;43.606;1.472;2023-02-04T02:56:18;101085.53;;;16.41;51.88
54236;BME280;40151;43.606;1.472;2023-02-04T02:58:44;101086.44;;;16.38;51.96
54236;BME280;40151;43.606;1.472;2023-02-04T03:01:10;101076.78;;;16.39;52.11
54236;BME280;40151;43.606;1.472;2023-02-04T03:03:39;101071.53;;;16.37;51.96
54236;BME280;40151;43.606;1.472;2023-02-04T03:06:10;101076.72;;;16.42;52.04
54236;BME280;40151;43.606;1.472;2023-02-04T03:08:37;101070.59;;;16.42;51.88
54236;BME280;40151;43.606;1.472;2023-02-04T03:11:04;101066.22;;;16.41;51.98
54236;BME280;40151;43.606;1.472;2023-02-04T03:13:29;101072.38;;;16.40;51.90
54236;BME280;40151;43.606;1.472;2023-02-04T03:15:55;101061.00;;;16.37;52.22
54236;BME280;40151;43.606;1.472;2023-02-04T03:18:22;101061.88;;;16.38;52.26
54236;BME280;40151;43.606;1.472;2023-02-04T03:20:48;101065.44;;;16.35;51.87
54236;BME280;40151;43.606;1.472;2023-02-04T03:23:15;101074.13;;;16.41;51.90
54236;BME280;40151;43.606;1.472;2023-02-04T03:25:42;101061.91;;;16.36;51.99
54236;BME280;40151;43.606;1.472;2023-02-04T03:28:08;101065.34;;;16.38;52.00
54236;BME280;40151;43.606;1.472;2023-02-04T03:30:33;101051.34;;;16.38;52.18
54236;BME280;40151;43.606;1.472;2023-02-04T03:32:59;101060.09;;;16.38;52.03
54236;BME280;40151;43.606;1.472;2023-02-04T03:35:24;101060.97;;;16.41;51.98
54236;BME280;40151;43.606;1.472;2023-02-04T03:37:50;101051.38;;;16.33;51.90
54236;BME280;40151;43.606;1.472;2023-02-04T03:40:15;101056.56;;;16.40;52.12
54236;BME280;40151;43.606;1.472;2023-02-04T03:42:41;101061.91;;;16.36;51.94
54236;BME280;40151;43.606;1.472;2023-02-04T03:45:07;101063.66;;;16.36;52.11
54236;BME280;40151;43.606;1.472;2023-02-04T03:47:32;101068.03;;;16.37;51.91
54236;BME280;40151;43.606;1.472;2023-02-04T03:49:58;101057.50;;;16.37;52.03
54236;BME280;40151;43.606;1.472;2023-02-04T03:52:23;101056.66;;;16.33;51.83
54236;BME280;40151;43.606;1.472;2023-02-04T03:54:49;101054.03;;;16.33;51.94
54236;BME280;40151;43.606;1.472;2023-02-04T03:57:14;101058.47;;;16.31;52.09
54236;BME280;40151;43.606;1.472;2023-02-04T03:59:42;101060.19;;;16.32;51.84
54236;BME280;40151;43.606;1.472;2023-02-04T04:02:08;101076.81;;;16.36;51.81
54236;BME280;40151;43.606;1.472;2023-02-04T04:04:33;101063.72;;;16.31;52.10
54236;BME280;40151;43.606;1.472;2023-02-04T04:06:59;101073.34;;;16.34;51.89
54236;BME280;40151;43.606;1.472;2023-02-04T04:09:24;101068.97;;;16.34;51.92
54236;BME280;40151;43.606;1.472;2023-02-04T04:11:50;101061.94;;;16.33;51.95
54236;BME280;40151;43.606;1.472;2023-02-04T04:14:15;101055.81;;;16.31;52.00
54236;BME280;40151;43.606;1.472;2023-02-04T04:16:41;101056.66;;;16.33;51.96
54236;BME280;40151;43.606;1.472;2023-02-04T04:19:06;101068.09;;;16.31;51.88
54236;BME280;40151;43.606;1.472;2023-02-04T04:21:31;101064.56;;;16.33;51.72
54236;BME280;40151;43.606;1.472;2023-02-04T04:23:57;101068.97;;;16.34;51.89
54236;BME280;40151;43.606;1.472;2023-02-04T04:26:22;101067.19;;;16.33;52.03
54236;BME280;40151;43.606;1.472;2023-02-04T04:28:48;101071.63;;;16.33;52.00
54236;BME280;40151;43.606;1.472;2023-02-04T04:31:13;101078.69;;;16.29;52.17
54236;BME280;40151;43.606;1.472;2023-02-04T04:33:39;101077.72;;;16.33;51.97
54236;BME280;40151;43.606;1.472;2023-02-04T04:36:05;101076.88;;;16.33;51.95
54236;BME280;40151;43.606;1.472;2023-02-04T04:38:31;101084.78;;;16.34;52.12
54236;BME280;40151;43.606;1.472;2023-02-04T04:40:56;101085.69;;;16.32;52.00
54236;BME280;40151;43.606;1.472;2023-02-04T04:43:22;101089.19;;;16.31;51.83
54236;BME280;40151;43.606;1.472;2023-02-04T04:45:47;101089.25;;;16.26;52.14
54236;BME280;40151;43.606;1.472;2023-02-04T04:48:12;101091.88;;;16.29;51.91
54236;BME280;40151;43.606;1.472;2023-02-04T04:50:38;101092.75;;;16.28;51.79
54236;BME280;40151;43.606;1.472;2023-02-04T04:53:03;101105.94;;;16.28;51.88
54236;BME280;40151;43.606;1.472;2023-02-04T04:55:29;101101.53;;;16.27;51.61
54236;BME280;40151;43.606;1.472;2023-02-04T04:57:54;101105.94;;;16.28;51.91
54236;BME280;40151;43.606;1.472;2023-02-04T05:00:20;101102.41;;;16.29;51.67
54236;BME280;40151;43.606;1.472;2023-02-04T05:02:46;101098.94;;;16.26;51.45
54236;BME280;40151;43.606;1.472;2023-02-04T05:05:11;101105.94;;;16.28;51.81
54236;BME280;40151;43.606;1.472;2023-02-04T05:07:37;101098.97;;;16.24;51.52
54236;BME280;40151;43.606;1.472;2023-02-04T05:10:04;101087.50;;;16.27;51.55
54236;BME280;40151;43.606;1.472;2023-02-04T05:12:29;101091.06;;;16.22;51.76
54236;BME280;40151;43.606;1.472;2023-02-04T05:14:58;101107.75;;;16.23;51.37
54236;BME280;40151;43.606;1.472;2023-02-04T05:17:23;101104.25;;;16.21;51.47
54236;BME280;40151;43.606;1.472;2023-02-04T05:19:48;101100.78;;;16.19;51.63
54236;BME280;40151;43.606;1.472;2023-02-04T05:22:14;101099.03;;;16.19;51.56
54236;BME280;40151;43.606;1.472;2023-02-04T05:24:39;101099.91;;;16.18;51.37
54236;BME280;40151;43.606;1.472;2023-02-04T05:27:05;101095.56;;;16.16;51.29
54236;BME280;40151;43.606;1.472;2023-02-04T05:29:30;101094.63;;;16.18;51.36
54236;BME280;40151;43.606;1.472;2023-02-04T05:31:55;101090.28;;;16.16;51.43
54236;BME280;40151;43.606;1.472;2023-02-04T05:34:21;101086.78;;;16.17;51.44
54236;BME280;40151;43.606;1.472;2023-02-04T05:36:46;101083.28;;;16.15;51.35
54236;BME280;40151;43.606;1.472;2023-02-04T05:39:12;101079.81;;;16.13;51.29
54236;BME280;40151;43.606;1.472;2023-02-04T05:41:37;101081.56;;;16.14;51.40
54236;BME280;40151;43.606;1.472;2023-02-04T05:44:03;101093.88;;;16.12;51.17
54236;BME280;40151;43.606;1.472;2023-02-04T05:46:29;101102.69;;;16.10;51.19
54236;BME280;40151;43.606;1.472;2023-02-04T05:48:54;101101.78;;;16.12;51.32
54236;BME280;40151;43.606;1.472;2023-02-04T05:51:20;101104.41;;;16.12;51.11
54236;BME280;40151;43.606;1.472;2023-02-04T05:53:45;101100.91;;;16.09;50.96
54236;BME280;40151;43.606;1.472;2023-02-04T05:56:10;101092.16;;;16.10;51.03
54236;BME280;40151;43.606;1.472;2023-02-04T05:58:36;101097.41;;;16.10;51.03
54236;BME280;40151;43.606;1.472;2023-02-04T06:01:02;101099.19;;;16.08;51.03
54236;BME280;40151;43.606;1.472;2023-02-04T06:03:29;101097.47;;;16.04;51.21
54236;BME280;40151;43.606;1.472;2023-02-04T06:05:55;101107.09;;;16.07;51.14
54236;BME280;40151;43.606;1.472;2023-02-04T06:08:21;101097.47;;;16.06;50.80
54236;BME280;40151;43.606;1.472;2023-02-04T06:10:47;101100.06;;;16.07;51.00
54236;BME280;40151;43.606;1.472;2023-02-04T06:13:12;101104.50;;;16.05;51.00
54236;BME280;40151;43.606;1.472;2023-02-04T06:15:37;101102.75;;;16.04;51.02
54236;BME280;40151;43.606;1.472;2023-02-04T06:18:03;101104.53;;;16.04;50.97
54236;BME280;40151;43.606;1.472;2023-02-04T06:20:28;101097.47;;;16.04;51.02
54236;BME280;40151;43.606;1.472;2023-02-04T06:22:54;101104.53;;;16.04;51.03
54236;BME280;40151;43.606;1.472;2023-02-04T06:25:20;101107.16;;;16.02;50.73
54236;BME280;40151;43.606;1.472;2023-02-04T06:27:46;101102.78;;;16.01;51.18
54236;BME280;40151;43.606;1.472;2023-02-04T06:30:12;101108.94;;;16.02;50.95
54236;BME280;40151;43.606;1.472;2023-02-04T06:32:37;101115.97;;;16.01;50.75
54236;BME280;40151;43.606;1.472;2023-02-04T06:35:03;101122.13;;;16.00;50.99
54236;BME280;40151;43.606;1.472;2023-02-04T06:37:29;101118.63;;;15.98;50.80
54236;BME280;40151;43.606;1.472;2023-02-04T06:39:54;101123.88;;;15.98;50.66
54236;BME280;40151;43.606;1.472;2023-02-04T06:42:22;101123.03;;;15.97;50.86
54236;BME280;40151;43.606;1.472;2023-02-04T06:44:47;101116.88;;;15.97;50.72
54236;BME280;40151;43.606;1.472;2023-02-04T06:47:13;101120.41;;;15.96;50.74
54236;BME280;40151;43.606;1.472;2023-02-04T06:49:38;101125.66;;;15.99;50.85
54236;BME280;40151;43.606;1.472;2023-02-04T06:52:04;101125.69;;;15.96;51.00
54236;BME280;40151;43.606;1.472;2023-02-04T06:54:30;101121.28;;;15.96;50.78
54236;BME280;40151;43.606;1.472;2023-02-04T06:56:55;101129.22;;;15.95;50.80
54236;BME280;40151;43.606;1.472;2023-02-04T06:59:27;101124.84;;;15.89;50.67
54236;BME280;40151;43.606;1.472;2023-02-04T07:01:56;101127.47;;;15.91;50.91
54236;BME280;40151;43.606;1.472;2023-02-04T07:04:22;101128.38;;;15.93;50.69
54236;BME280;40151;43.606;1.472;2023-02-04T07:06:47;101126.59;;;15.93;50.58
54236;BME280;40151;43.606;1.472;2023-02-04T07:09:12;101117.84;;;15.90;50.86
54236;BME280;40151;43.606;1.472;2023-02-04T07:11:38;101109.09;;;15.88;50.83
54236;BME280;40151;43.606;1.472;2023-02-04T07:14:03;101114.31;;;15.91;50.88
54236;BME280;40151;43.606;1.472;2023-02-04T07:16:29;101109.94;;;15.90;50.49
54236;BME280;40151;43.606;1.472;2023-02-04T07:18:54;101121.38;;;15.89;50.78
54236;BME280;40151;43.606;1.472;2023-02-04T07:21:19;101122.25;;;15.88;50.50
54236;BME280;40151;43.606;1.472;2023-02-04T07:23:45;101116.16;;;15.84;50.92
54236;BME280;40151;43.606;1.472;2023-02-04T07:26:10;101124.91;;;15.86;50.78
54236;BME280;40151;43.606;1.472;2023-02-04T07:28:36;101130.16;;;15.86;50.79
54236;BME280;40151;43.606;1.472;2023-02-04T07:31:01;101127.56;;;15.83;50.62
54236;BME280;40151;43.606;1.472;2023-02-04T07:33:27;101131.06;;;15.85;50.57
54236;BME280;40151;43.606;1.472;2023-02-04T07:35:52;101124.91;;;15.84;50.58
54236;BME280;40151;43.606;1.472;2023-02-04T07:38:18;101131.09;;;15.82;50.79
54236;BME280;40151;43.606;1.472;2023-02-04T07:40:43;101132.00;;;15.79;50.79
54236;BME280;40151;43.606;1.472;2023-02-04T07:43:08;101134.59;;;15.82;50.75
54236;BME280;40151;43.606;1.472;2023-02-04T07:45:34;101133.72;;;15.80;50.49
54236;BME280;40151;43.606;1.472;2023-02-04T07:47:59;101136.41;;;15.77;50.72
54236;BME280;40151;43.606;1.472;2023-02-04T07:50:25;101138.16;;;15.77;50.73
54236;BME280;40151;43.606;1.472;2023-02-04T07:52:50;101145.16;;;15.79;50.69
54236;BME280;40151;43.606;1.472;2023-02-04T07:55:15;101144.31;;;15.77;50.58
54236;BME280;40151;43.606;1.472;2023-02-04T07:57:41;101150.47;;;15.76;50.52
54236;BME280;40151;43.606;1.472;2023-02-04T08:00:07;101156.59;;;15.77;50.37
54236;BME280;40151;43.606;1.472;2023-02-04T08:02:32;101161.00;;;15.76;50.43
54236;BME280;40151;43.606;1.472;2023-02-04T08:04:58;101166.25;;;15.76;50.41
54236;BME280;40151;43.606;1.472;2023-02-04T08:07:23;101155.75;;;15.76;50.40
54236;BME280;40151;43.606;1.472;2023-02-04T08:09:48;101162.75;;;15.74;50.46
54236;BME280;40151;43.606;1.472;2023-02-04T08:12:14;101172.44;;;15.72;50.63
54236;BME280;40151;43.606;1.472;2023-02-04T08:14:39;101168.06;;;15.71;50.49
54236;BME280;40151;43.606;1.472;2023-02-04T08:17:05;101166.28;;;15.73;50.76
54236;BME280;40151;43.606;1.472;2023-02-04T08:19:30;101161.03;;;15.73;50.54
54236;BME280;40151;43.606;1.472;2023-02-04T08:21:55;101166.34;;;15.70;50.40
54236;BME280;40151;43.606;1.472;2023-02-04T08:24:21;101168.03;;;15.74;50.21
54236;BME280;40151;43.606;1.472;2023-02-04T08:26:46;101172.44;;;15.72;50.37
54236;BME280;40151;43.606;1.472;2023-02-04T08:29:12;101180.34;;;15.72;50.65
54236;BME280;40151;43.606;1.472;2023-02-04T08:31:37;101181.25;;;15.68;50.37
54236;BME280;40151;43.606;1.472;2023-02-04T08:34:04;101185.66;;;15.69;50.54
54236;BME280;40151;43.606;1.472;2023-02-04T08:36:30;101180.41;;;15.69;50.78
54236;BME280;40151;43.606;1.472;2023-02-04T08:38:57;101173.41;;;15.65;50.92
54236;BME280;40151;43.606;1.472;2023-02-04T08:41:22;101169.03;;;15.64;50.61
54236;BME280;40151;43.606;1.472;2023-02-04T08:43:48;101175.13;;;15.69;50.43
54236;BME280;40151;43.606;1.472;2023-02-04T08:46:13;101180.44;;;15.63;50.57
54236;BME280;40151;43.606;1.472;2023-02-04T08:48:39;101180.41;;;15.66;50.50
54236;BME280;40151;43.606;1.472;2023-02-04T08:51:04;101185.69;;;15.66;50.55
54236;BME280;40151;43.606;1.472;2023-02-04T08:53:30;101180.41;;;15.64;50.42
54236;BME280;40151;43.606;1.472;2023-02-04T08:55:55;101177.78;;;15.64;50.51
54236;BME280;40151;43.606;1.472;2023-02-04T08:58:20;101177.78;;;15.64;50.51
54236;BME280;40151;43.606;1.472;2023-02-04T09:00:46;101177.78;;;15.66;50.50
54236;BME280;40151;43.606;1.472;2023-02-04T09:03:11;101183.94;;;15.65;50.71
54236;BME280;40151;43.606;1.472;2023-02-04T09:05:37;101181.31;;;15.62;50.41
54236;BME280;40151;43.606;1.472;2023-02-04T09:08:02;101185.69;;;15.63;50.46
54236;BME280;40151;43.606;1.472;2023-02-04T09:10:27;101186.59;;;15.62;50.50
54236;BME280;40151;43.606;1.472;2023-02-04T09:12:53;101182.19;;;15.64;50.42
54236;BME280;40151;43.606;1.472;2023-02-04T09:15:21;101194.47;;;15.65;50.50
54236;BME280;40151;43.606;1.472;2023-02-04T09:17:47;101205.88;;;15.64;50.65
54236;BME280;40151;43.606;1.472;2023-02-04T09:20:12;101191.84;;;15.62;50.54
54236;BME280;40151;43.606;1.472;2023-02-04T09:22:38;101198.00;;;15.64;50.29
54236;BME280;40151;43.606;1.472;2023-02-04T09:25:03;101195.38;;;15.62;50.37
54236;BME280;40151;43.606;1.472;2023-02-04T09:27:29;101203.28;;;15.61;50.38
54236;BME280;40151;43.606;1.472;2023-02-04T09:29:54;101203.28;;;15.61;50.51
54236;BME280;40151;43.606;1.472;2023-02-04T09:32:20;101205.00;;;15.62;50.51
54236;BME280;40151;43.606;1.472;2023-02-04T09:34:46;101216.44;;;15.61;50.24
54236;BME280;40151;43.606;1.472;2023-02-04T09:37:11;101212.91;;;15.62;50.55
54236;BME280;40151;43.606;1.472;2023-02-04T09:39:36;101220.81;;;15.62;50.24
54236;BME280;40151;43.606;1.472;2023-02-04T09:42:02;101216.47;;;15.57;50.57
54236;BME280;40151;43.606;1.472;2023-02-04T09:44:28;101219.97;;;15.58;50.54
54236;BME280;40151;43.606;1.472;2023-02-04T09:46:55;101219.94;;;15.60;50.62
54236;BME280;40151;43.606;1.472;2023-02-04T09:49:23;101220.84;;;15.59;50.47
54236;BME280;40151;43.606;1.472;2023-02-04T09:51:49;101222.59;;;15.60;50.25
54236;BME280;40151;43.606;1.472;2023-02-04T09:54:17;101219.97;;;15.58;50.20
54236;BME280;40151;43.606;1.472;2023-02-04T09:56:43;101216.44;;;15.61;50.32
54236;BME280;40151;43.606;1.472;2023-02-04T09:59:15;101224.31;;;15.61;50.46
54236;BME280;40151;43.606;1.472;2023-02-04T10:01:41;101219.09;;;15.57;50.58
54236;BME280;40151;43.606;1.472;2023-02-04T10:04:13;101218.22;;;15.60;50.26
54236;BME280;40151;43.606;1.472;2023-02-04T10:06:41;101208.59;;;15.57;50.35
54236;BME280;40151;43.606;1.472;2023-02-04T10:09:11;101207.69;;;15.60;50.24
54236;BME280;40151;43.606;1.472;2023-02-04T10:11:40;101210.34;;;15.57;50.08
54236;BME280;40151;43.606;1.472;2023-02-04T10:14:14;101213.84;;;15.57;50.51
54236;BME280;40151;43.606;1.472;2023-02-04T10:16:41;101210.34;;;15.55;50.49
54236;BME280;40151;43.606;1.472;2023-02-04T10:19:14;101212.94;;;15.59;50.41
54236;BME280;40151;43.606;1.472;2023-02-04T10:21:42;101215.59;;;15.55;50.40
54236;BME280;40151;43.606;1.472;2023-02-04T10:24:17;101213.88;;;15.54;50.30
54236;BME280;40151;43.606;1.472;2023-02-04T10:26:44;101211.22;;;15.56;50.63
54236;BME280;40151;43.606;1.472;2023-02-04T10:29:18;101217.38;;;15.53;50.23
54236;BME280;40151;43.606;1.472;2023-02-04T10:31:46;101213.88;;;15.54;50.46
54236;BME280;40151;43.606;1.472;2023-02-04T10:34:16;101217.34;;;15.56;50.22
54236;BME280;40151;43.606;1.472;2023-02-04T10:36:47;101222.59;;;15.56;50.30
54236;BME280;40151;43.606;1.472;2023-02-04T10:39:18;101223.50;;;15.55;50.47
54236;BME280;40151;43.606;1.472;2023-02-04T10:41:49;101224.38;;;15.57;50.17
54236;BME280;40151;43.606;1.472;2023-02-04T10:44:17;101223.47;;;15.57;50.49
54236;BME280;40151;43.606;1.472;2023-02-04T10:46:43;101216.47;;;15.57;50.25
54236;BME280;40151;43.606;1.472;2023-02-04T10:49:22;101216.50;;;15.56;50.34
54236;BME280;40151;43.606;1.472;2023-02-04T10:51:49;101208.59;;;15.54;50.47
54236;BME280;40151;43.606;1.472;2023-02-04T10:54:16;101216.50;;;15.56;50.35
54236;BME280;40151;43.606;1.472;2023-02-04T10:57:16;101220.88;;;15.55;50.58
54236;BME280;40151;43.606;1.472;2023-02-04T10:59:43;101216.50;;;15.53;50.35
54236;BME280;40151;43.606;1.472;2023-02-04T11:02:44;101206.00;;;15.51;50.42
54236;BME280;40151;43.606;1.472;2023-02-04T11:05:20;101209.47;;;15.55;50.36
54236;BME280;40151;43.606;1.472;2023-02-04T11:07:47;101206.81;;;15.56;50.16
54236;BME280;40151;43.606;1.472;2023-02-04T11:10:19;101205.06;;;15.55;50.42
54236;BME280;40151;43.606;1.472;2023-02-04T11:20:48;101184.03;;;15.55;50.19
54236;BME280;40151;43.606;1.472;2023-02-04T11:26:01;101187.53;;;15.57;50.36
54236;BME280;40151;43.606;1.472;2023-02-04T11:28:27;101187.53;;;15.57;50.19
54236;BME280;40151;43.606;1.472;2023-02-04T11:31:00;101177.00;;;15.57;50.24
54236;BME280;40151;43.606;1.472;2023-02-04T11:33:37;101173.50;;;15.55;50.13
54236;BME280;40151;43.606;1.472;2023-02-04T11:36:05;101164.75;;;15.53;50.29
54236;BME280;40151;43.606;1.472;2023-02-04T11:38:32;101166.47;;;15.57;50.24
54236;BME280;40151;43.606;1.472;2023-02-04T11:40:59;101160.34;;;15.57;50.27
54236;BME280;40151;43.606;1.472;2023-02-04T11:43:25;101155.97;;;15.57;50.00
54236;BME280;40151;43.606;1.472;2023-02-04T11:46:12;101154.16;;;15.60;50.33
54236;BME280;40151;43.606;1.472;2023-02-04T11:48:38;101154.16;;;15.60;50.12
54236;BME280;40151;43.606;1.472;2023-02-04T11:51:11;101152.38;;;15.62;50.06
54236;BME280;40151;43.606;1.472;2023-02-04T11:53:37;101150.66;;;15.61;50.37
54236;BME280;40151;43.606;1.472;2023-02-04T11:56:02;101143.63;;;15.60;50.31
54236;BME280;40151;43.606;1.472;2023-02-04T11:58:29;101141.00;;;15.60;50.23
54236;BME280;40151;43.606;1.472;2023-02-04T12:00:55;101138.38;;;15.60;50.38
54236;BME280;40151;43.606;1.472;2023-02-04T12:03:26;101127.84;;;15.60;50.28
54236;BME280;40151;43.606;1.472;2023-02-04T12:05:55;101113.88;;;15.56;50.47
54236;BME280;40151;43.606;1.472;2023-02-04T12:10:57;101120.81;;;15.62;50.36
54236;BME280;40151;43.606;1.472;2023-02-04T12:13:26;101128.69;;;15.62;50.08
54236;BME280;40151;43.606;1.472;2023-02-04T12:16:04;101128.69;;;15.62;50.11
54236;BME280;40151;43.606;1.472;2023-02-04T12:18:30;101120.78;;;15.65;50.02
54236;BME280;40151;43.606;1.472;2023-02-04T12:20:57;101121.75;;;15.57;50.33
54236;BME280;40151;43.606;1.472;2023-02-04T12:23:24;101122.59;;;15.60;50.29
54236;BME280;40151;43.606;1.472;2023-02-04T12:25:50;101116.44;;;15.61;50.41
54236;BME280;40151;43.606;1.472;2023-02-04T12:28:16;101117.28;;;15.63;50.30
54236;BME280;40151;43.606;1.472;2023-02-04T12:30:41;101111.16;;;15.62;50.05
54236;BME280;40151;43.606;1.472;2023-02-04T12:33:07;101112.00;;;15.63;50.32
54236;BME280;40151;43.606;1.472;2023-02-04T12:35:33;101099.75;;;15.62;50.39
54236;BME280;40151;43.606;1.472;2023-02-04T12:37:58;101099.78;;;15.60;50.06
54236;BME280;40151;43.606;1.472;2023-02-04T12:40:24;101089.22;;;15.62;50.16
54236;BME280;40151;43.606;1.472;2023-02-04T12:42:49;101086.59;;;15.62;50.13
54236;BME280;40151;43.606;1.472;2023-02-04T12:45:16;101087.47;;;15.64;50.29
54236;BME280;40151;43.606;1.472;2023-02-04T12:47:43;101089.22;;;15.62;50.15
54236;BME280;40151;43.606;1.472;2023-02-04T12:50:10;101076.94;;;15.64;50.02
54236;BME280;40151;43.606;1.472;2023-02-04T12:52:36;101074.25;;;15.65;50.03
54236;BME280;40151;43.606;1.472;2023-02-04T12:55:03;101069.91;;;15.63;50.14
54236;BME280;40151;43.606;1.472;2023-02-04T12:57:30;101073.41;;;15.65;50.16
54236;BME280;40151;43.606;1.472;2023-02-04T12:59:55;101066.41;;;15.64;50.10